Latest Weather Observations for South Channel Island

IDV60901

Issued at 11:11 pm EDT Saturday 28 March 2015 (issued every 10 minutes, with the page automatically refreshed every 10 minutes)

About weather observations | Map of Melbourne area stations | Latest observations for Melbourne area | Other Formats
Station Details ID: 086344 Name: SOUTH CHANNEL ISLAND Lat: -38.31 Lon: 144.80 Height: 9.0 m
Data from the previous 72 hours. | See also: Recent months for locations in Victoria
Date/Time
EDT
Tmp

°C
App
Tmp
°C
Dew
Point
°C
Rel
Hum
%
Delta-T

°C
Wind Press
QNH
hPa
Press
MSL
hPa
Rain
since
9 am
mm
Dir
 
Spd
km/h
Gust
km/h
Spd
kts
Gust
kts
28/11:00pm - - - - - CALM 0 0 0 0 - - -
28/10:30pm - - - - - CALM 0 0 0 0 - - -
28/10:00pm - - - - - WSW 6 9 3 5 - - -
28/09:30pm - - - - - SE 7 9 4 5 - - -
28/09:00pm - - - - - S 4 7 2 4 - - -
28/08:30pm - - - - - S 7 9 4 5 - - -
28/08:00pm - - - - - SSW 9 13 5 7 - - -
28/07:30pm - - - - - S 11 13 6 7 - - -
28/07:00pm - - - - - S 13 15 7 8 - - -
28/06:30pm - - - - - SSW 13 17 7 9 - - -
28/06:00pm - - - - - S 11 15 6 8 - - -
28/05:30pm - - - - - SSW 15 19 8 10 - - -
28/05:00pm - - - - - SW 13 19 7 10 - - -
28/04:30pm - - - - - WSW 9 13 5 7 - - -
28/04:00pm - - - - - W 9 11 5 6 - - -
28/03:30pm - - - - - WSW 11 15 6 8 - - -
28/03:00pm - - - - - WSW 11 15 6 8 - - -
28/02:30pm - - - - - WSW 9 13 5 7 - - -
28/02:00pm - - - - - W 13 17 7 9 - - -
28/01:30pm - - - - - WSW 13 17 7 9 - - -
28/01:00pm - - - - - WSW 13 17 7 9 - - -
28/12:30pm - - - - - W 15 19 8 10 - - -
28/12:00pm - - - - - W 17 22 9 12 - - -
28/11:30am - - - - - W 19 26 10 14 - - -
28/11:00am - - - - - WSW 19 22 10 12 - - -
28/10:30am - - - - - WSW 20 24 11 13 - - -
28/10:00am - - - - - WSW 17 19 9 10 - - -
28/09:30am - - - - - W 22 28 12 15 - - -
28/09:00am - - - - - WSW 24 30 13 16 - - -
28/08:30am - - - - - W 26 32 14 17 - - -
28/08:00am - - - - - W 26 30 14 16 - - -
28/07:30am - - - - - W 28 35 15 19 - - -
28/07:00am - - - - - NW 24 28 13 15 - - -
28/06:30am - - - - - NW 19 24 10 13 - - -
28/06:00am - - - - - W 19 24 10 13 - - -
28/05:30am - - - - - WSW 19 24 10 13 - - -
28/05:00am - - - - - W 24 30 13 16 - - -
28/04:30am - - - - - WSW 33 39 18 21 - - -
28/04:00am - - - - - SW 30 33 16 18 - - -
28/03:30am - - - - - SW 28 33 15 18 - - -
28/03:00am - - - - - SW 28 32 15 17 - - -
28/02:30am - - - - - SW 24 32 13 17 - - -
28/02:00am - - - - - SW 28 33 15 18 - - -
28/01:30am - - - - - WSW 33 37 18 20 - - -
28/01:00am - - - - - SW 28 32 15 17 - - -
28/12:30am - - - - - SW 28 33 15 18 - - -
 
Date/Time
EDT
Tmp

°C
App
Tmp
°C
Dew
Point
°C
Rel
Hum
%
Delta-T

°C
Wind Press
QNH
hPa
Press
MSL
hPa
Rain
since
9 am
mm
Dir
 
Spd
km/h
Gust
km/h
Spd
kts
Gust
kts
27/11:30pm - - - - - SW 37 44 20 24 - - -
27/11:00pm - - - - - SW 35 43 19 23 - - -
27/10:30pm - - - - - SW 35 44 19 24 - - -
27/10:00pm - - - - - SW 35 41 19 22 - - -
27/09:30pm - - - - - SW 39 46 21 25 - - -
27/09:00pm - - - - - SW 39 46 21 25 - - -
27/08:47pm - - - - - SW 33 44 18 24 - - -
27/08:30pm - - - - - WSW 30 33 16 18 - - -
27/08:00pm - - - - - WSW 39 48 21 26 - - -
27/07:30pm - - - - - SW 39 48 21 26 - - -
27/07:00pm - - - - - SW 43 50 23 27 - - -
27/06:30pm - - - - - WSW 39 46 21 25 - - -
27/06:00pm - - - - - WSW 41 50 22 27 - - -
27/05:30pm - - - - - WSW 41 52 22 28 - - -
27/05:00pm - - - - - WSW 44 52 24 28 - - -
27/04:30pm - - - - - WSW 44 54 24 29 - - -
27/04:00pm - - - - - WSW 46 56 25 30 - - -
27/03:30pm - - - - - WSW 43 54 23 29 - - -
27/03:00pm - - - - - WSW 44 54 24 29 - - -
27/02:30pm - - - - - WSW 44 54 24 29 - - -
27/02:00pm - - - - - WSW 46 57 25 31 - - -
27/01:30pm - - - - - WSW 50 59 27 32 - - -
27/01:00pm - - - - - WSW 50 57 27 31 - - -
27/12:30pm - - - - - WSW 52 63 28 34 - - -
27/12:00pm - - - - - WSW 52 61 28 33 - - -
27/11:30am - - - - - WSW 50 61 27 33 - - -
27/11:00am - - - - - WSW 54 63 29 34 - - -
27/10:30am - - - - - WSW 54 63 29 34 - - -
27/10:00am - - - - - WSW 52 63 28 34 - - -
27/09:39am - - - - - WSW 52 70 28 38 - - -
27/09:30am - - - - - WSW 52 63 28 34 - - -
27/09:02am - - - - - WSW 50 69 27 37 - - -
27/09:00am - - - - - WSW 48 59 26 32 - - -
27/08:30am - - - - - WSW 52 67 28 36 - - -
27/08:00am - - - - - W 50 61 27 33 - - -
27/07:30am - - - - - WSW 54 72 29 39 - - -
27/07:00am - - - - - WSW 50 57 27 31 - - -
27/06:30am - - - - - W 50 57 27 31 - - -
27/06:00am - - - - - WSW 54 70 29 38 - - -
27/05:52am - - - - - WSW 46 69 25 37 - - -
27/05:30am - - - - - W 48 56 26 30 - - -
27/05:00am - - - - - W 37 52 20 28 - - -
27/04:30am - - - - - W 50 56 27 30 - - -
27/04:00am - - - - - WSW 46 67 25 36 - - -
27/03:57am - - - - - WSW 46 67 25 36 - - -
27/03:30am - - - - - W 46 57 25 31 - - -
27/03:00am - - - - - W 50 57 27 31 - - -
27/02:43am - - - - - W 48 70 26 38 - - -
27/02:37am - - - - - W 52 67 28 36 - - -
27/02:30am - - - - - WSW 48 67 26 36 - - -
27/02:01am - - - - - W 41 59 22 32 - - -
27/02:00am - - - - - W 43 59 23 32 - - -
27/01:30am - - - - - WNW 50 56 27 30 - - -
27/01:00am - - - - - WNW 54 63 29 34 - - -
27/12:30am - - - - - WNW 50 56 27 30 - - -
27/12:00am - - - - - WNW 50 59 27 32 - - -
 
Date/Time
EDT
Tmp

°C
App
Tmp
°C
Dew
Point
°C
Rel
Hum
%
Delta-T

°C
Wind Press
QNH
hPa
Press
MSL
hPa
Rain
since
9 am
mm
Dir
 
Spd
km/h
Gust
km/h
Spd
kts
Gust
kts
26/11:30pm - - - - - WNW 54 61 29 33 - - -
26/11:00pm - - - - - WNW 54 63 29 34 - - -
26/10:30pm - - - - - WNW 52 61 28 33 - - -
26/10:00pm - - - - - WNW 56 67 30 36 - - -
26/09:30pm - - - - - WNW 54 63 29 34 - - -
26/09:00pm - - - - - WNW 54 61 29 33 - - -
26/08:30pm - - - - - WNW 54 63 29 34 - - -
26/08:00pm - - - - - WNW 54 63 29 34 - - -
26/07:30pm - - - - - WNW 54 63 29 34 - - -
26/07:00pm - - - - - WNW 59 69 32 37 - - -
26/06:30pm - - - - - NW 61 78 33 42 - - -
26/06:00pm - - - - - NW 63 76 34 41 - - -
26/05:41pm - - - - - NW 59 78 32 42 - - -
26/05:30pm - - - - - NW 57 72 31 39 - - -
26/05:08pm - - - - - NW 57 76 31 41 - - -
26/05:00pm - - - - - NW 54 69 29 37 - - -
26/04:37pm - - - - - NW 57 76 31 41 - - -
26/04:30pm - - - - - WNW 63 76 34 41 - - -
26/04:00pm - - - - - NW 63 80 34 43 - - -
26/03:45pm - - - - - WNW 61 82 33 44 - - -
26/03:30pm - - - - - NW 59 70 32 38 - - -
26/03:00pm - - - - - NW 56 67 30 36 - - -
26/02:30pm - - - - - NW 56 65 30 35 - - -
26/02:00pm - - - - - NW 56 69 30 37 - - -
26/01:30pm - - - - - NW 48 59 26 32 - - -
26/01:00pm - - - - - NW 54 65 29 35 - - -
26/12:30pm - - - - - NW 44 59 24 32 - - -
26/12:00pm - - - - - NW 37 48 20 26 - - -
26/11:30am - - - - - NW 39 48 21 26 - - -
26/11:00am - - - - - WNW 41 52 22 28 - - -
26/10:30am - - - - - WNW 43 52 23 28 - - -
26/10:00am - - - - - WNW 50 61 27 33 - - -
26/09:30am - - - - - WNW 43 52 23 28 - - -
26/09:00am - - - - - WNW 44 54 24 29 - - -
26/08:30am - - - - - WNW 39 50 21 27 - - -
26/08:00am - - - - - WNW 46 57 25 31 - - -
26/07:30am - - - - - WNW 46 57 25 31 - - -
26/07:00am - - - - - WNW 52 59 28 32 - - -
26/06:30am - - - - - WNW 39 48 21 26 - - -
26/06:00am - - - - - WNW 41 48 22 26 - - -
26/05:30am - - - - - WNW 41 50 22 27 - - -
26/05:00am - - - - - WNW 41 48 22 26 - - -
26/04:30am - - - - - NW 41 50 22 27 - - -
26/04:00am - - - - - NW 39 48 21 26 - - -
26/03:30am - - - - - NW 35 48 19 26 - - -
26/03:00am - - - - - NW 33 41 18 22 - - -
26/02:30am - - - - - WNW 35 48 19 26 - - -
26/02:00am - - - - - W 52 59 28 32 - - -
26/01:30am - - - - - W 59 72 32 39 - - -
26/01:00am - - - - - W 61 72 33 39 - - -
26/12:30am - - - - - NW 56 70 30 38 - - -
26/12:26am - - - - - NNW 50 70 27 38 - - -
26/12:23am - - - - - NNW 44 70 24 38 - - -
26/12:21am - - - - - NNW 41 54 22 29 - - -
26/12:00am - - - - - N 32 35 17 19 - - -
 
Date/Time
EDT
Tmp

°C
App
Tmp
°C
Dew
Point
°C
Rel
Hum
%
Delta-T

°C
Wind Press
QNH
hPa
Press
MSL
hPa
Rain
since
9 am
mm
Dir
 
Spd
km/h
Gust
km/h
Spd
kts
Gust
kts
25/11:30pm - - - - - N 28 32 15 17 - - -

Latest Capital City Observations: Canberra | Sydney | Melbourne | Brisbane | Adelaide | Perth | Hobart | Darwin

Other Formats:

Comma delimited format used in spreadsheet applications
http://www.bom.gov.au/fwo/IDV60901/IDV60901.94853.axf

JavaScript Object Notation format (JSON) in row-major order
http://www.bom.gov.au/fwo/IDV60901/IDV60901.94853.json